Arrow — CRXN — position and weather

sailwx.info

Track history (hours):
 
Tides and Currents Weather Stations Pressure Air Temp Water Temp Dewpoint Dewpoint Depression Visibility Wind Speed Wind Dir Waves Ship Positions

Arrow

Last reported at 2015-Feb-15 09:31 UTC. Time now 2015-Mar-01 10:57 UTC.
Position N 35°56' W 005°14'.
Warning: this ship's position is 14 days out of date.

Length 126 m; draft 8.5 m.

Type: Cargo ship. MMSI: 255797000.

Date/timePositionNaut miles runAvg speedWind from/ knotsBaromVisibWave heightAir tempDewpointWater temp
2015-Feb-15 09:31N 35°56' W 005°14'4 4.6
2015-Feb-15 08:33N 35°54' W 005°19'0 0.0
2015-Feb-15 07:33N 35°54' W 005°19'0 0.0
2015-Feb-15 06:33N 35°54' W 005°19'0 0.0
2015-Feb-15 05:33N 35°54' W 005°19'0 0.0
2015-Feb-15 04:33N 35°54' W 005°19'0 0.0
2015-Feb-15 03:33N 35°54' W 005°19'0 0.0
2015-Feb-15 02:33N 35°54' W 005°19'0 0.2
2015-Feb-15 01:33N 35°54' W 005°19'4 3.6
2015-Feb-15 00:33N 35°56' W 005°22'21610.7
2015-Feb-14 04:28N 37°28' W 009°25'1112.1
2015-Feb-14 03:33N 37°39' W 009°21'1212.1
2015-Feb-14 02:33N 37°50' W 009°16'1212.4
2015-Feb-14 01:33N 38°02' W 009°10'1212.4
2015-Feb-14 00:33N 38°14' W 009°04'1212.1
2015-Feb-13 23:33N 38°25' W 008°59'5 5.0
2015-Feb-13 22:31N 38°30' W 008°56'0 0.0
2015-Feb-13 21:28N 38°30' W 008°56'0 0.0
2015-Feb-13 20:31N 38°30' W 008°56'0 0.0
2015-Feb-13 19:28N 38°30' W 008°56'0 0.0
2015-Feb-13 18:31N 38°30' W 008°56'0 0.0
2015-Feb-13 17:31N 38°30' W 008°56'0 0.0
2015-Feb-13 16:31N 38°30' W 008°56'0 0.0
2015-Feb-13 15:31N 38°30' W 008°56'0 0.0
2015-Feb-13 14:31N 38°30' W 008°56'0 0.0
2015-Feb-13 13:31N 38°30' W 008°56'0 0.0
2015-Feb-13 12:31N 38°30' W 008°56'0 0.0
2015-Feb-13 11:31N 38°30' W 008°56'0 0.0
2015-Feb-13 10:28N 38°30' W 008°56'0 0.0
2015-Feb-13 09:31N 38°30' W 008°56'0 0.0
2015-Feb-13 08:31N 38°30' W 008°56'0 0.0
2015-Feb-13 07:31N 38°30' W 008°56'0 0.0
2015-Feb-13 06:31N 38°30' W 008°56'0 0.0
2015-Feb-13 05:31N 38°30' W 008°56'0 0.0
2015-Feb-13 04:31N 38°30' W 008°56'0 0.0
2015-Feb-13 03:31N 38°30' W 008°56'0 0.0
2015-Feb-13 02:31N 38°30' W 008°56'0 0.0
2015-Feb-13 01:31N 38°30' W 008°56'0 0.0
2015-Feb-13 00:31N 38°30' W 008°56'0 0.0
2015-Feb-12 23:31N 38°30' W 008°56'0 0.0
2015-Feb-12 22:28N 38°30' W 008°56'0 0.0
2015-Feb-12 21:31N 38°30' W 008°56'0 0.0
2015-Feb-12 20:31N 38°30' W 008°56'0 0.0
2015-Feb-12 19:31N 38°30' W 008°56'0 0.0
2015-Feb-12 18:28N 38°30' W 008°56'0 0.0
2015-Feb-12 17:28N 38°30' W 008°56'0 0.0
2015-Feb-12 16:28N 38°30' W 008°56'0 0.0
2015-Feb-12 15:25N 38°30' W 008°56'0 0.0
2015-Feb-12 14:31N 38°30' W 008°56'0 0.0
2015-Feb-12 13:31N 38°30' W 008°56'0 0.0
2015-Feb-12 12:10N 38°30' W 008°56'0 0.0
2015-Feb-12 11:19N 38°30' W 008°56'0 0.0
2015-Feb-12 10:28N 38°30' W 008°56'0 0.0
2015-Feb-12 09:31N 38°30' W 008°56'0 0.0
2015-Feb-12 08:31N 38°30' W 008°56'2 2.0
2015-Feb-12 07:33N 38°31' W 008°54'0 0.5
2015-Feb-12 06:32N 38°31' W 008°53'0 0.0
2015-Feb-12 05:32N 38°31' W 008°53'0 0.0
2015-Feb-12 04:29N 38°31' W 008°53'0 0.0
2015-Feb-12 03:05N 38°31' W 008°53'0 0.0
2015-Feb-12 02:32N 38°31' W 008°53'0 0.1
2015-Feb-12 01:32N 38°31' W 008°54'0 0.0
2015-Feb-12 00:17N 38°31' W 008°54'0 0.0
2015-Feb-11 23:23N 38°31' W 008°54'0 0.0
2015-Feb-11 22:23N 38°31' W 008°54'0 0.0
2015-Feb-11 21:29N 38°31' W 008°54'0 0.0
2015-Feb-11 20:32N 38°31' W 008°54'0 0.1
2015-Feb-11 19:32N 38°31' W 008°53'0 0.0
2015-Feb-11 18:32N 38°31' W 008°53'0 0.0
2015-Feb-11 17:32N 38°31' W 008°53'0 0.0
2015-Feb-11 16:23N 38°31' W 008°53'0 0.0
2015-Feb-11 14:29N 38°31' W 008°53'0 0.0
2015-Feb-11 11:33N 38°31' W 008°54'1 0.9
2015-Feb-11 10:33N 38°30' W 008°55'7 7.3
2015-Feb-11 09:33N 38°24' W 008°60'7 6.8
2015-Feb-11 08:33N 38°18' W 009°01'1212.0
2015-Feb-11 07:33N 38°06' W 009°05'1212.0
2015-Feb-11 06:33N 37°54' W 009°07'1212.3
2015-Feb-11 05:33N 37°42' W 009°10'1212.5
2015-Feb-11 04:33N 37°30' W 009°13'59 9.8
2015-Feb-10 22:32N 36°38' W 008°38'15112.6
2015-Feb-10 10:31N 35°58' W 005°37'1111.8
2015-Feb-10 09:34N 35°60' W 005°23'  
Track history (hours):
 
Tides and Currents Weather Stations Pressure Air Temp Water Temp Dewpoint Dewpoint Depression Visibility Wind Speed Wind Dir Waves Ship Positions

Arrow

Last reported at 2015-Feb-15 09:31 UTC. Time now 2015-Mar-01 10:57 UTC.
Position N 35°56' W 005°14'.
Warning: this ship's position is 14 days out of date.

Length 126 m; draft 8.5 m.

Type: Cargo ship. MMSI: 255797000.

Date/timePositionNaut miles runAvg speedWind from/ knotsBaromVisibWave heightAir tempDewpointWater temp
2015-Feb-15 09:31N 35°56' W 005°14'4 4.6
2015-Feb-15 08:33N 35°54' W 005°19'0 0.0
2015-Feb-15 07:33N 35°54' W 005°19'0 0.0
2015-Feb-15 06:33N 35°54' W 005°19'0 0.0
2015-Feb-15 05:33N 35°54' W 005°19'0 0.0
2015-Feb-15 04:33N 35°54' W 005°19'0 0.0
2015-Feb-15 03:33N 35°54' W 005°19'0 0.0
2015-Feb-15 02:33N 35°54' W 005°19'0 0.2
2015-Feb-15 01:33N 35°54' W 005°19'4 3.6
2015-Feb-15 00:33N 35°56' W 005°22'21610.7
2015-Feb-14 04:28N 37°28' W 009°25'1112.1
2015-Feb-14 03:33N 37°39' W 009°21'1212.1
2015-Feb-14 02:33N 37°50' W 009°16'1212.4
2015-Feb-14 01:33N 38°02' W 009°10'1212.4
2015-Feb-14 00:33N 38°14' W 009°04'1212.1
2015-Feb-13 23:33N 38°25' W 008°59'5 5.0
2015-Feb-13 22:31N 38°30' W 008°56'0 0.0
2015-Feb-13 21:28N 38°30' W 008°56'0 0.0
2015-Feb-13 20:31N 38°30' W 008°56'0 0.0
2015-Feb-13 19:28N 38°30' W 008°56'0 0.0
2015-Feb-13 18:31N 38°30' W 008°56'0 0.0
2015-Feb-13 17:31N 38°30' W 008°56'0 0.0
2015-Feb-13 16:31N 38°30' W 008°56'0 0.0
2015-Feb-13 15:31N 38°30' W 008°56'0 0.0
2015-Feb-13 14:31N 38°30' W 008°56'0 0.0
2015-Feb-13 13:31N 38°30' W 008°56'0 0.0
2015-Feb-13 12:31N 38°30' W 008°56'0 0.0
2015-Feb-13 11:31N 38°30' W 008°56'0 0.0
2015-Feb-13 10:28N 38°30' W 008°56'0 0.0
2015-Feb-13 09:31N 38°30' W 008°56'0 0.0
2015-Feb-13 08:31N 38°30' W 008°56'0 0.0
2015-Feb-13 07:31N 38°30' W 008°56'0 0.0
2015-Feb-13 06:31N 38°30' W 008°56'0 0.0
2015-Feb-13 05:31N 38°30' W 008°56'0 0.0
2015-Feb-13 04:31N 38°30' W 008°56'0 0.0
2015-Feb-13 03:31N 38°30' W 008°56'0 0.0
2015-Feb-13 02:31N 38°30' W 008°56'0 0.0
2015-Feb-13 01:31N 38°30' W 008°56'0 0.0
2015-Feb-13 00:31N 38°30' W 008°56'0 0.0
2015-Feb-12 23:31N 38°30' W 008°56'0 0.0
2015-Feb-12 22:28N 38°30' W 008°56'0 0.0
2015-Feb-12 21:31N 38°30' W 008°56'0 0.0
2015-Feb-12 20:31N 38°30' W 008°56'0 0.0
2015-Feb-12 19:31N 38°30' W 008°56'0 0.0
2015-Feb-12 18:28N 38°30' W 008°56'0 0.0
2015-Feb-12 17:28N 38°30' W 008°56'0 0.0
2015-Feb-12 16:28N 38°30' W 008°56'0 0.0
2015-Feb-12 15:25N 38°30' W 008°56'0 0.0
2015-Feb-12 14:31N 38°30' W 008°56'0 0.0
2015-Feb-12 13:31N 38°30' W 008°56'0 0.0
2015-Feb-12 12:10N 38°30' W 008°56'0 0.0
2015-Feb-12 11:19N 38°30' W 008°56'0 0.0
2015-Feb-12 10:28N 38°30' W 008°56'0 0.0
2015-Feb-12 09:31N 38°30' W 008°56'0 0.0
2015-Feb-12 08:31N 38°30' W 008°56'2 2.0
2015-Feb-12 07:33N 38°31' W 008°54'0 0.5
2015-Feb-12 06:32N 38°31' W 008°53'0 0.0
2015-Feb-12 05:32N 38°31' W 008°53'0 0.0
2015-Feb-12 04:29N 38°31' W 008°53'0 0.0
2015-Feb-12 03:05N 38°31' W 008°53'0 0.0
2015-Feb-12 02:32N 38°31' W 008°53'0 0.1
2015-Feb-12 01:32N 38°31' W 008°54'0 0.0
2015-Feb-12 00:17N 38°31' W 008°54'0 0.0
2015-Feb-11 23:23N 38°31' W 008°54'0 0.0
2015-Feb-11 22:23N 38°31' W 008°54'0 0.0
2015-Feb-11 21:29N 38°31' W 008°54'0 0.0
2015-Feb-11 20:32N 38°31' W 008°54'0 0.1
2015-Feb-11 19:32N 38°31' W 008°53'0 0.0
2015-Feb-11 18:32N 38°31' W 008°53'0 0.0
2015-Feb-11 17:32N 38°31' W 008°53'0 0.0
2015-Feb-11 16:23N 38°31' W 008°53'0 0.0
2015-Feb-11 14:29N 38°31' W 008°53'0 0.0
2015-Feb-11 11:33N 38°31' W 008°54'1 0.9
2015-Feb-11 10:33N 38°30' W 008°55'7 7.3
2015-Feb-11 09:33N 38°24' W 008°60'7 6.8
2015-Feb-11 08:33N 38°18' W 009°01'1212.0
2015-Feb-11 07:33N 38°06' W 009°05'1212.0
2015-Feb-11 06:33N 37°54' W 009°07'1212.3
2015-Feb-11 05:33N 37°42' W 009°10'1212.5
2015-Feb-11 04:33N 37°30' W 009°13'59 9.8
2015-Feb-10 22:32N 36°38' W 008°38'15112.6
2015-Feb-10 10:31N 35°58' W 005°37'1111.8
2015-Feb-10 09:34N 35°60' W 005°23'  

Dump ship's entire track history